sensor_id;sensor_type;location;lat;lon;timestamp;temperature;humidity
46482;DHT22;32193;51.446;6.792;2022-08-01T00:00:07;19.90;99.90
46482;DHT22;32193;51.446;6.792;2022-08-01T00:02:33;20.50;99.90
46482;DHT22;32193;51.446;6.792;2022-08-01T00:04:58;20.60;99.90
46482;DHT22;32193;51.446;6.792;2022-08-01T00:09:51;20.80;99.90
46482;DHT22;32193;51.446;6.792;2022-08-01T00:12:17;20.60;99.90
46482;DHT22;32193;51.446;6.792;2022-08-01T00:17:08;20.30;99.90
46482;DHT22;32193;51.446;6.792;2022-08-01T00:19:34;20.40;99.90
46482;DHT22;32193;51.446;6.792;2022-08-01T00:24:26;20.50;99.90
46482;DHT22;32193;51.446;6.792;2022-08-01T00:26:51;20.00;99.90
46482;DHT22;32193;51.446;6.792;2022-08-01T00:34:09;20.60;99.90
46482;DHT22;32193;51.446;6.792;2022-08-01T00:36:34;20.30;99.90
46482;DHT22;32193;51.446;6.792;2022-08-01T00:39:00;20.60;99.90
46482;DHT22;32193;51.446;6.792;2022-08-01T00:41:26;20.20;99.90
46482;DHT22;32193;51.446;6.792;2022-08-01T00:43:51;20.50;99.90
46482;DHT22;32193;51.446;6.792;2022-08-01T00:51:09;20.70;99.90
46482;DHT22;32193;51.446;6.792;2022-08-01T00:53:35;20.30;99.90
46482;DHT22;32193;51.446;6.792;2022-08-01T00:56:01;20.30;99.90
46482;DHT22;32193;51.446;6.792;2022-08-01T00:58:28;20.10;99.90
46482;DHT22;32193;51.446;6.792;2022-08-01T01:00:56;20.50;99.90
46482;DHT22;32193;51.446;6.792;2022-08-01T01:03:23;20.70;99.90
46482;DHT22;32193;51.446;6.792;2022-08-01T01:05:56;20.10;99.90
46482;DHT22;32193;51.446;6.792;2022-08-01T01:08:32;20.20;99.90
46482;DHT22;32193;51.446;6.792;2022-08-01T01:11:13;20.40;99.90
46482;DHT22;32193;51.446;6.792;2022-08-01T01:13:55;20.20;99.90
46482;DHT22;32193;51.446;6.792;2022-08-01T01:16:24;20.50;99.90
46482;DHT22;32193;51.446;6.792;2022-08-01T01:18:54;20.90;99.90
46482;DHT22;32193;51.446;6.792;2022-08-01T01:24:58;20.40;99.90
46482;DHT22;32193;51.446;6.792;2022-08-01T01:29:44;20.70;99.90
46482;DHT22;32193;51.446;6.792;2022-08-01T01:34:49;20.20;99.90
46482;DHT22;32193;51.446;6.792;2022-08-01T01:37:21;20.70;99.90
46482;DHT22;32193;51.446;6.792;2022-08-01T01:39:50;19.80;99.90
46482;DHT22;32193;51.446;6.792;2022-08-01T01:42:17;20.20;99.90
46482;DHT22;32193;51.446;6.792;2022-08-01T01:44:45;19.90;99.90
46482;DHT22;32193;51.446;6.792;2022-08-01T01:47:13;20.20;99.90
46482;DHT22;32193;51.446;6.792;2022-08-01T01:49:40;20.10;99.90
46482;DHT22;32193;51.446;6.792;2022-08-01T01:52:07;20.50;99.90
46482;DHT22;32193;51.446;6.792;2022-08-01T01:54:37;20.70;99.90
46482;DHT22;32193;51.446;6.792;2022-08-01T01:57:05;20.30;99.90
46482;DHT22;32193;51.446;6.792;2022-08-01T01:59:34;20.40;99.90
46482;DHT22;32193;51.446;6.792;2022-08-01T02:02:05;20.30;99.90
46482;DHT22;32193;51.446;6.792;2022-08-01T02:04:34;19.80;99.90
46482;DHT22;32193;51.446;6.792;2022-08-01T02:07:01;20.30;99.90
46482;DHT22;32193;51.446;6.792;2022-08-01T02:09:28;20.60;99.90
46482;DHT22;32193;51.446;6.792;2022-08-01T02:11:55;20.30;99.90
46482;DHT22;32193;51.446;6.792;2022-08-01T02:14:23;19.90;99.90
46482;DHT22;32193;51.446;6.792;2022-08-01T02:16:50;20.30;99.90
46482;DHT22;32193;51.446;6.792;2022-08-01T02:19:19;20.40;99.90
46482;DHT22;32193;51.446;6.792;2022-08-01T02:21:58;20.70;99.90
46482;DHT22;32193;51.446;6.792;2022-08-01T02:24:35;20.30;99.90
46482;DHT22;32193;51.446;6.792;2022-08-01T02:27:07;20.00;99.90
46482;DHT22;32193;51.446;6.792;2022-08-01T02:29:42;20.00;99.90
46482;DHT22;32193;51.446;6.792;2022-08-01T02:32:19;20.40;99.90
46482;DHT22;32193;51.446;6.792;2022-08-01T02:34:46;20.00;99.90
46482;DHT22;32193;51.446;6.792;2022-08-01T02:37:14;20.40;99.90
46482;DHT22;32193;51.446;6.792;2022-08-01T02:39:42;20.10;99.90
46482;DHT22;32193;51.446;6.792;2022-08-01T02:42:09;20.70;99.90
46482;DHT22;32193;51.446;6.792;2022-08-01T02:44:39;20.70;99.90
46482;DHT22;32193;51.446;6.792;2022-08-01T02:47:07;20.10;99.90
46482;DHT22;32193;51.446;6.792;2022-08-01T02:49:39;20.20;99.90
46482;DHT22;32193;51.446;6.792;2022-08-01T02:52:09;20.20;99.90
46482;DHT22;32193;51.446;6.792;2022-08-01T02:54:36;20.60;99.90
46482;DHT22;32193;51.446;6.792;2022-08-01T02:57:03;20.60;99.90
46482;DHT22;32193;51.446;6.792;2022-08-01T02:59:29;20.70;99.90
46482;DHT22;32193;51.446;6.792;2022-08-01T03:01:57;20.10;99.90
46482;DHT22;32193;51.446;6.792;2022-08-01T03:04:25;20.40;99.90
46482;DHT22;32193;51.446;6.792;2022-08-01T03:06:54;19.80;99.90
46482;DHT22;32193;51.446;6.792;2022-08-01T03:09:21;20.40;99.90
46482;DHT22;32193;51.446;6.792;2022-08-01T03:11:48;20.60;99.90
46482;DHT22;32193;51.446;6.792;2022-08-01T03:14:16;20.20;99.90
46482;DHT22;32193;51.446;6.792;2022-08-01T03:16:44;20.60;99.90
46482;DHT22;32193;51.446;6.792;2022-08-01T03:19:12;20.40;99.90
46482;DHT22;32193;51.446;6.792;2022-08-01T03:21:40;20.40;99.90
46482;DHT22;32193;51.446;6.792;2022-08-01T03:24:06;20.90;99.90
46482;DHT22;32193;51.446;6.792;2022-08-01T03:26:34;20.40;99.90
46482;DHT22;32193;51.446;6.792;2022-08-01T03:29:06;20.40;99.90
46482;DHT22;32193;51.446;6.792;2022-08-01T03:31:36;20.40;99.90
46482;DHT22;32193;51.446;6.792;2022-08-01T03:34:04;19.70;99.90
46482;DHT22;32193;51.446;6.792;2022-08-01T03:36:31;20.50;99.90
46482;DHT22;32193;51.446;6.792;2022-08-01T03:39:02;20.20;99.90
46482;DHT22;32193;51.446;6.792;2022-08-01T03:41:36;20.30;99.90
46482;DHT22;32193;51.446;6.792;2022-08-01T03:44:05;20.70;99.90
46482;DHT22;32193;51.446;6.792;2022-08-01T03:46:36;20.30;99.90
46482;DHT22;32193;51.446;6.792;2022-08-01T03:49:11;20.30;99.90
46482;DHT22;32193;51.446;6.792;2022-08-01T03:51:40;20.50;99.90
46482;DHT22;32193;51.446;6.792;2022-08-01T03:54:06;20.20;99.90
46482;DHT22;32193;51.446;6.792;2022-08-01T03:56:34;21.00;99.90
46482;DHT22;32193;51.446;6.792;2022-08-01T03:59:02;20.30;99.90
46482;DHT22;32193;51.446;6.792;2022-08-01T04:01:31;19.80;99.90
46482;DHT22;32193;51.446;6.792;2022-08-01T04:03:59;20.60;99.90
46482;DHT22;32193;51.446;6.792;2022-08-01T04:06:24;19.90;99.90
46482;DHT22;32193;51.446;6.792;2022-08-01T04:08:50;20.30;99.90
46482;DHT22;32193;51.446;6.792;2022-08-01T04:11:26;20.70;99.90
46482;DHT22;32193;51.446;6.792;2022-08-01T04:13:53;20.30;99.90
46482;DHT22;32193;51.446;6.792;2022-08-01T04:16:19;20.30;99.90
46482;DHT22;32193;51.446;6.792;2022-08-01T04:18:45;20.70;99.90
46482;DHT22;32193;51.446;6.792;2022-08-01T04:21:11;20.20;99.90
46482;DHT22;32193;51.446;6.792;2022-08-01T04:23:38;20.10;99.90
46482;DHT22;32193;51.446;6.792;2022-08-01T04:26:07;20.70;99.90
46482;DHT22;32193;51.446;6.792;2022-08-01T04:28:36;20.40;99.90
46482;DHT22;32193;51.446;6.792;2022-08-01T04:31:02;19.90;99.90
46482;DHT22;32193;51.446;6.792;2022-08-01T04:33:31;20.70;99.90
46482;DHT22;32193;51.446;6.792;2022-08-01T04:35:59;20.40;99.90
46482;DHT22;32193;51.446;6.792;2022-08-01T04:38:26;20.60;99.90
46482;DHT22;32193;51.446;6.792;2022-08-01T04:40:54;20.70;99.90
46482;DHT22;32193;51.446;6.792;2022-08-01T04:45:47;19.90;99.90
46482;DHT22;32193;51.446;6.792;2022-08-01T04:48:16;20.40;99.90
46482;DHT22;32193;51.446;6.792;2022-08-01T04:50:42;20.80;99.90
46482;DHT22;32193;51.446;6.792;2022-08-01T04:53:14;20.30;99.90
46482;DHT22;32193;51.446;6.792;2022-08-01T04:58:12;20.50;99.90
46482;DHT22;32193;51.446;6.792;2022-08-01T05:00:38;21.00;99.90
46482;DHT22;32193;51.446;6.792;2022-08-01T05:03:04;20.50;99.90
46482;DHT22;32193;51.446;6.792;2022-08-01T05:05:30;20.10;99.90
46482;DHT22;32193;51.446;6.792;2022-08-01T05:07:59;20.70;99.90
46482;DHT22;32193;51.446;6.792;2022-08-01T05:12:51;20.70;99.90
46482;DHT22;32193;51.446;6.792;2022-08-01T05:15:17;20.30;99.90
46482;DHT22;32193;51.446;6.792;2022-08-01T05:17:43;20.40;99.90
46482;DHT22;32193;51.446;6.792;2022-08-01T05:20:09;20.50;99.90
46482;DHT22;32193;51.446;6.792;2022-08-01T05:22:35;20.50;99.90
46482;DHT22;32193;51.446;6.792;2022-08-01T05:27:27;20.30;99.90
46482;DHT22;32193;51.446;6.792;2022-08-01T05:29:52;20.30;99.90
46482;DHT22;32193;51.446;6.792;2022-08-01T05:32:18;20.40;99.90
46482;DHT22;32193;51.446;6.792;2022-08-01T05:39:36;20.20;99.90
46482;DHT22;32193;51.446;6.792;2022-08-01T05:42:01;20.90;99.90
46482;DHT22;32193;51.446;6.792;2022-08-01T05:46:53;20.90;99.90
46482;DHT22;32193;51.446;6.792;2022-08-01T05:49:19;20.20;99.90
46482;DHT22;32193;51.446;6.792;2022-08-01T05:54:11;20.30;99.90
46482;DHT22;32193;51.446;6.792;2022-08-01T05:59:03;20.30;99.90
46482;DHT22;32193;51.446;6.792;2022-08-01T06:06:21;20.50;99.90
46482;DHT22;32193;51.446;6.792;2022-08-01T06:08:47;20.50;99.90
46482;DHT22;32193;51.446;6.792;2022-08-01T06:11:13;20.60;99.90
46482;DHT22;32193;51.446;6.792;2022-08-01T06:13:39;21.20;99.90
46482;DHT22;32193;51.446;6.792;2022-08-01T06:18:30;20.70;99.90
46482;DHT22;32193;51.446;6.792;2022-08-01T06:20:56;21.30;99.90
46482;DHT22;32193;51.446;6.792;2022-08-01T06:25:48;21.10;99.90
46482;DHT22;32193;51.446;6.792;2022-08-01T06:33:08;21.60;99.90
46482;DHT22;32193;51.446;6.792;2022-08-01T06:40:26;22.30;99.90
46482;DHT22;32193;51.446;6.792;2022-08-01T06:42:52;21.50;99.90
46482;DHT22;32193;51.446;6.792;2022-08-01T06:47:44;21.70;99.90
46482;DHT22;32193;51.446;6.792;2022-08-01T06:50:11;22.00;99.90
46482;DHT22;32193;51.446;6.792;2022-08-01T06:55:04;22.70;99.90
46482;DHT22;32193;51.446;6.792;2022-08-01T06:57:30;22.10;99.90
46482;DHT22;32193;51.446;6.792;2022-08-01T07:02:22;23.00;99.90
46482;DHT22;32193;51.446;6.792;2022-08-01T07:04:48;23.20;99.90
46482;DHT22;32193;51.446;6.792;2022-08-01T07:12:09;24.60;99.90
46482;DHT22;32193;51.446;6.792;2022-08-01T07:19:26;24.40;99.90
46482;DHT22;32193;51.446;6.792;2022-08-01T07:24:19;23.90;99.90
46482;DHT22;32193;51.446;6.792;2022-08-01T07:26:47;24.40;99.90
46482;DHT22;32193;51.446;6.792;2022-08-01T07:31:39;25.70;99.90
46482;DHT22;32193;51.446;6.792;2022-08-01T07:38:56;24.50;99.90
46482;DHT22;32193;51.446;6.792;2022-08-01T07:43:48;23.60;99.90
46482;DHT22;32193;51.446;6.792;2022-08-01T07:46:14;23.60;99.90
46482;DHT22;32193;51.446;6.792;2022-08-01T07:51:06;23.90;99.90
46482;DHT22;32193;51.446;6.792;2022-08-01T07:53:33;24.10;99.90
46482;DHT22;32193;51.446;6.792;2022-08-01T07:55:59;25.10;99.90
46482;DHT22;32193;51.446;6.792;2022-08-01T07:58:25;25.50;99.90
46482;DHT22;32193;51.446;6.792;2022-08-01T08:00:50;25.60;99.90
46482;DHT22;32193;51.446;6.792;2022-08-01T08:03:16;26.00;99.90
46482;DHT22;32193;51.446;6.792;2022-08-01T08:05:41;25.50;99.90
46482;DHT22;32193;51.446;6.792;2022-08-01T08:08:08;25.40;99.90
46482;DHT22;32193;51.446;6.792;2022-08-01T08:13:01;24.50;99.90
46482;DHT22;32193;51.446;6.792;2022-08-01T08:15:27;24.30;99.90
46482;DHT22;32193;51.446;6.792;2022-08-01T08:17:53;25.00;99.90
46482;DHT22;32193;51.446;6.792;2022-08-01T08:20:19;24.20;99.90
46482;DHT22;32193;51.446;6.792;2022-08-01T08:22:50;24.40;99.90
46482;DHT22;32193;51.446;6.792;2022-08-01T08:25:16;26.00;99.90
46482;DHT22;32193;51.446;6.792;2022-08-01T08:30:08;26.50;99.90
46482;DHT22;32193;51.446;6.792;2022-08-01T08:32:35;26.80;99.90
46482;DHT22;32193;51.446;6.792;2022-08-01T08:37:27;27.50;99.90
46482;DHT22;32193;51.446;6.792;2022-08-01T08:39:53;27.30;99.90
46482;DHT22;32193;51.446;6.792;2022-08-01T08:44:45;27.10;99.90
46482;DHT22;32193;51.446;6.792;2022-08-01T08:47:12;27.00;99.90
46482;DHT22;32193;51.446;6.792;2022-08-01T08:49:38;26.30;99.90
46482;DHT22;32193;51.446;6.792;2022-08-01T08:54:31;25.60;99.90
46482;DHT22;32193;51.446;6.792;2022-08-01T08:56:58;25.60;99.90
46482;DHT22;32193;51.446;6.792;2022-08-01T08:59:24;25.60;99.90
46482;DHT22;32193;51.446;6.792;2022-08-01T09:01:51;25.60;99.90
46482;DHT22;32193;51.446;6.792;2022-08-01T09:04:17;25.60;99.90
46482;DHT22;32193;51.446;6.792;2022-08-01T09:09:09;25.40;99.90
46482;DHT22;32193;51.446;6.792;2022-08-01T09:11:37;25.90;99.90
46482;DHT22;32193;51.446;6.792;2022-08-01T09:14:12;25.50;99.90
46482;DHT22;32193;51.446;6.792;2022-08-01T09:16:44;25.00;99.90
46482;DHT22;32193;51.446;6.792;2022-08-01T09:24:03;26.10;99.90
46482;DHT22;32193;51.446;6.792;2022-08-01T09:26:33;25.70;99.90
46482;DHT22;32193;51.446;6.792;2022-08-01T09:29:03;25.60;99.90
46482;DHT22;32193;51.446;6.792;2022-08-01T09:31:38;25.70;99.90
46482;DHT22;32193;51.446;6.792;2022-08-01T09:34:04;25.90;99.90
46482;DHT22;32193;51.446;6.792;2022-08-01T09:36:51;26.00;99.90
46482;DHT22;32193;51.446;6.792;2022-08-01T09:39:18;25.50;99.90
46482;DHT22;32193;51.446;6.792;2022-08-01T09:44:11;25.60;99.90
46482;DHT22;32193;51.446;6.792;2022-08-01T09:46:54;25.70;99.90
46482;DHT22;32193;51.446;6.792;2022-08-01T09:49:34;26.00;99.90
46482;DHT22;32193;51.446;6.792;2022-08-01T09:54:36;25.40;99.90
46482;DHT22;32193;51.446;6.792;2022-08-01T09:59:36;25.30;99.90
46482;DHT22;32193;51.446;6.792;2022-08-01T10:02:03;25.90;99.90
46482;DHT22;32193;51.446;6.792;2022-08-01T10:04:28;25.90;99.90
46482;DHT22;32193;51.446;6.792;2022-08-01T10:07:06;26.30;99.90
46482;DHT22;32193;51.446;6.792;2022-08-01T10:09:36;26.20;99.90
46482;DHT22;32193;51.446;6.792;2022-08-01T10:14:31;26.70;99.90
46482;DHT22;32193;51.446;6.792;2022-08-01T10:16:59;26.60;99.90
46482;DHT22;32193;51.446;6.792;2022-08-01T10:19:26;26.60;99.90
46482;DHT22;32193;51.446;6.792;2022-08-01T10:21:54;25.90;99.90
46482;DHT22;32193;51.446;6.792;2022-08-01T10:24:21;26.00;99.90
46482;DHT22;32193;51.446;6.792;2022-08-01T10:27:14;26.30;99.90
46482;DHT22;32193;51.446;6.792;2022-08-01T10:34:40;26.10;99.90
46482;DHT22;32193;51.446;6.792;2022-08-01T10:37:06;25.80;99.90
46482;DHT22;32193;51.446;6.792;2022-08-01T10:39:33;26.30;99.90
46482;DHT22;32193;51.446;6.792;2022-08-01T10:42:00;27.10;99.90
46482;DHT22;32193;51.446;6.792;2022-08-01T10:44:28;26.80;99.90
46482;DHT22;32193;51.446;6.792;2022-08-01T10:47:11;26.30;99.90
46482;DHT22;32193;51.446;6.792;2022-08-01T10:50:40;26.10;99.90
46482;DHT22;32193;51.446;6.792;2022-08-01T11:04:03;24.60;99.90
46482;DHT22;32193;51.446;6.792;2022-08-01T11:08:58;24.10;99.90
46482;DHT22;32193;51.446;6.792;2022-08-01T11:11:25;24.20;99.90
46482;DHT22;32193;51.446;6.792;2022-08-01T11:14:01;25.20;99.90
46482;DHT22;32193;51.446;6.792;2022-08-01T11:16:35;25.10;99.90
46482;DHT22;32193;51.446;6.792;2022-08-01T11:19:02;25.60;99.90
46482;DHT22;32193;51.446;6.792;2022-08-01T11:24:54;26.50;99.90
46482;DHT22;32193;51.446;6.792;2022-08-01T11:27:28;26.00;99.90
46482;DHT22;32193;51.446;6.792;2022-08-01T11:32:52;25.90;99.90
46482;DHT22;32193;51.446;6.792;2022-08-01T11:35:18;26.00;99.90
46482;DHT22;32193;51.446;6.792;2022-08-01T11:37:49;25.60;99.90
46482;DHT22;32193;51.446;6.792;2022-08-01T11:42:43;25.20;99.90
46482;DHT22;32193;51.446;6.792;2022-08-01T11:45:09;25.00;99.90
46482;DHT22;32193;51.446;6.792;2022-08-01T11:47:50;25.30;99.90
46482;DHT22;32193;51.446;6.792;2022-08-01T11:53:03;25.60;99.90
46482;DHT22;32193;51.446;6.792;2022-08-01T11:58:21;25.60;99.90
46482;DHT22;32193;51.446;6.792;2022-08-01T12:00:54;25.20;99.90
46482;DHT22;32193;51.446;6.792;2022-08-01T12:03:25;25.90;99.90
46482;DHT22;32193;51.446;6.792;2022-08-01T12:05:53;26.30;99.90
46482;DHT22;32193;51.446;6.792;2022-08-01T12:08:30;26.00;99.90
46482;DHT22;32193;51.446;6.792;2022-08-01T12:10:58;26.20;99.90
46482;DHT22;32193;51.446;6.792;2022-08-01T12:13:25;26.20;99.90
46482;DHT22;32193;51.446;6.792;2022-08-01T12:15:50;26.10;99.90
46482;DHT22;32193;51.446;6.792;2022-08-01T12:18:16;26.30;99.90
46482;DHT22;32193;51.446;6.792;2022-08-01T12:20:43;25.40;99.90
46482;DHT22;32193;51.446;6.792;2022-08-01T12:23:11;25.80;99.90
46482;DHT22;32193;51.446;6.792;2022-08-01T12:25:38;25.70;99.90
46482;DHT22;32193;51.446;6.792;2022-08-01T12:28:10;25.30;99.90
46482;DHT22;32193;51.446;6.792;2022-08-01T12:30:38;24.90;99.90
46482;DHT22;32193;51.446;6.792;2022-08-01T12:33:06;25.30;99.90
46482;DHT22;32193;51.446;6.792;2022-08-01T12:35:33;24.90;99.90
46482;DHT22;32193;51.446;6.792;2022-08-01T12:38:05;25.70;99.90
46482;DHT22;32193;51.446;6.792;2022-08-01T12:40:36;25.20;99.90
46482;DHT22;32193;51.446;6.792;2022-08-01T12:43:07;25.80;99.90
46482;DHT22;32193;51.446;6.792;2022-08-01T12:45:38;25.10;99.90
46482;DHT22;32193;51.446;6.792;2022-08-01T12:48:15;24.60;99.90
46482;DHT22;32193;51.446;6.792;2022-08-01T12:50:44;24.60;99.90
46482;DHT22;32193;51.446;6.792;2022-08-01T12:53:11;24.90;99.90
46482;DHT22;32193;51.446;6.792;2022-08-01T12:55:44;25.40;99.90
46482;DHT22;32193;51.446;6.792;2022-08-01T12:58:13;25.40;99.90
46482;DHT22;32193;51.446;6.792;2022-08-01T13:00:40;25.10;99.90
46482;DHT22;32193;51.446;6.792;2022-08-01T13:03:08;25.40;99.90
46482;DHT22;32193;51.446;6.792;2022-08-01T13:08:23;24.90;99.90
46482;DHT22;32193;51.446;6.792;2022-08-01T13:10:50;25.30;99.90
46482;DHT22;32193;51.446;6.792;2022-08-01T13:16:03;25.40;99.90
46482;DHT22;32193;51.446;6.792;2022-08-01T13:18:30;25.30;99.90
46482;DHT22;32193;51.446;6.792;2022-08-01T13:23:40;25.30;99.90
46482;DHT22;32193;51.446;6.792;2022-08-01T13:26:06;24.90;99.90
46482;DHT22;32193;51.446;6.792;2022-08-01T13:28:32;25.20;99.90
46482;DHT22;32193;51.446;6.792;2022-08-01T13:31:06;25.80;99.90
46482;DHT22;32193;51.446;6.792;2022-08-01T13:33:46;25.50;99.90
46482;DHT22;32193;51.446;6.792;2022-08-01T13:36:13;25.40;99.90
46482;DHT22;32193;51.446;6.792;2022-08-01T13:38:40;25.30;99.90
46482;DHT22;32193;51.446;6.792;2022-08-01T13:48:42;24.80;99.90
46482;DHT22;32193;51.446;6.792;2022-08-01T13:58:27;25.00;99.90
46482;DHT22;32193;51.446;6.792;2022-08-01T14:03:21;24.10;99.90
46482;DHT22;32193;51.446;6.792;2022-08-01T14:05:46;25.10;99.90
46482;DHT22;32193;51.446;6.792;2022-08-01T14:08:12;25.10;99.90
46482;DHT22;32193;51.446;6.792;2022-08-01T14:10:38;24.30;99.90
46482;DHT22;32193;51.446;6.792;2022-08-01T14:13:03;24.20;99.90
46482;DHT22;32193;51.446;6.792;2022-08-01T14:15:30;24.60;99.90
46482;DHT22;32193;51.446;6.792;2022-08-01T14:20:22;23.90;99.90
46482;DHT22;32193;51.446;6.792;2022-08-01T14:25:14;24.30;99.90
46482;DHT22;32193;51.446;6.792;2022-08-01T14:30:07;25.00;99.90
46482;DHT22;32193;51.446;6.792;2022-08-01T14:32:34;25.10;99.90
46482;DHT22;32193;51.446;6.792;2022-08-01T14:35:04;24.80;99.90
46482;DHT22;32193;51.446;6.792;2022-08-01T14:39:59;24.40;99.90
46482;DHT22;32193;51.446;6.792;2022-08-01T14:42:25;24.60;99.90
46482;DHT22;32193;51.446;6.792;2022-08-01T14:44:51;24.80;99.90
46482;DHT22;32193;51.446;6.792;2022-08-01T14:54:35;25.10;99.90
46482;DHT22;32193;51.446;6.792;2022-08-01T14:57:00;25.30;99.90
46482;DHT22;32193;51.446;6.792;2022-08-01T14:59:26;24.00;99.90
46482;DHT22;32193;51.446;6.792;2022-08-01T15:06:45;24.80;99.90
46482;DHT22;32193;51.446;6.792;2022-08-01T15:11:37;24.70;99.90
46482;DHT22;32193;51.446;6.792;2022-08-01T15:14:03;25.00;99.90
46482;DHT22;32193;51.446;6.792;2022-08-01T15:16:47;25.20;99.90
46482;DHT22;32193;51.446;6.792;2022-08-01T15:19:14;25.40;99.90
46482;DHT22;32193;51.446;6.792;2022-08-01T15:26:31;25.70;99.90
46482;DHT22;32193;51.446;6.792;2022-08-01T15:28:57;25.40;99.90
46482;DHT22;32193;51.446;6.792;2022-08-01T15:31:23;25.00;99.90
46482;DHT22;32193;51.446;6.792;2022-08-01T15:38:40;25.50;99.90
46482;DHT22;32193;51.446;6.792;2022-08-01T15:43:32;24.40;99.90
46482;DHT22;32193;51.446;6.792;2022-08-01T15:45:58;24.20;99.90
46482;DHT22;32193;51.446;6.792;2022-08-01T15:48:23;25.00;99.90
46482;DHT22;32193;51.446;6.792;2022-08-01T15:53:15;24.80;99.90
46482;DHT22;32193;51.446;6.792;2022-08-01T15:58:08;24.80;99.90
46482;DHT22;32193;51.446;6.792;2022-08-01T16:00:34;25.20;99.90
46482;DHT22;32193;51.446;6.792;2022-08-01T16:05:26;25.00;99.90
46482;DHT22;32193;51.446;6.792;2022-08-01T16:10:18;25.20;99.90
46482;DHT22;32193;51.446;6.792;2022-08-01T16:12:43;25.10;99.90
46482;DHT22;32193;51.446;6.792;2022-08-01T16:20:01;25.20;99.90
46482;DHT22;32193;51.446;6.792;2022-08-01T16:22:27;25.00;99.90
46482;DHT22;32193;51.446;6.792;2022-08-01T16:27:19;25.50;99.90
46482;DHT22;32193;51.446;6.792;2022-08-01T16:32:10;25.70;99.90
46482;DHT22;32193;51.446;6.792;2022-08-01T16:34:36;25.70;99.90
46482;DHT22;32193;51.446;6.792;2022-08-01T16:37:02;25.50;99.90
46482;DHT22;32193;51.446;6.792;2022-08-01T16:39:28;25.80;99.90
46482;DHT22;32193;51.446;6.792;2022-08-01T16:41:55;25.70;99.90
46482;DHT22;32193;51.446;6.792;2022-08-01T16:44:22;26.10;99.90
46482;DHT22;32193;51.446;6.792;2022-08-01T16:49:14;25.90;99.90
46482;DHT22;32193;51.446;6.792;2022-08-01T16:54:05;24.80;99.90
46482;DHT22;32193;51.446;6.792;2022-08-01T16:58:57;25.50;99.90
46482;DHT22;32193;51.446;6.792;2022-08-01T17:03:50;24.80;99.90
46482;DHT22;32193;51.446;6.792;2022-08-01T17:06:16;24.80;99.90
46482;DHT22;32193;51.446;6.792;2022-08-01T17:08:41;25.20;99.90
46482;DHT22;32193;51.446;6.792;2022-08-01T17:11:07;25.00;99.90
46482;DHT22;32193;51.446;6.792;2022-08-01T17:13:33;25.00;99.90
46482;DHT22;32193;51.446;6.792;2022-08-01T17:18:25;25.00;99.90
46482;DHT22;32193;51.446;6.792;2022-08-01T17:20:51;25.30;99.90
46482;DHT22;32193;51.446;6.792;2022-08-01T17:25:44;25.10;99.90
46482;DHT22;32193;51.446;6.792;2022-08-01T17:30:36;25.10;99.90
46482;DHT22;32193;51.446;6.792;2022-08-01T17:33:03;25.40;99.90
46482;DHT22;32193;51.446;6.792;2022-08-01T17:35:29;24.90;99.90
46482;DHT22;32193;51.446;6.792;2022-08-01T17:37:55;24.30;99.90
46482;DHT22;32193;51.446;6.792;2022-08-01T17:40:20;25.00;99.90
46482;DHT22;32193;51.446;6.792;2022-08-01T17:42:46;25.30;99.90
46482;DHT22;32193;51.446;6.792;2022-08-01T17:45:12;25.10;99.90
46482;DHT22;32193;51.446;6.792;2022-08-01T17:47:38;24.80;99.90
46482;DHT22;32193;51.446;6.792;2022-08-01T17:50:06;24.50;99.90
46482;DHT22;32193;51.446;6.792;2022-08-01T17:52:32;24.50;99.90
46482;DHT22;32193;51.446;6.792;2022-08-01T17:54:59;24.90;99.90
46482;DHT22;32193;51.446;6.792;2022-08-01T17:57:25;24.70;99.90
46482;DHT22;32193;51.446;6.792;2022-08-01T17:59:51;24.30;99.90
46482;DHT22;32193;51.446;6.792;2022-08-01T18:07:09;23.80;99.90
46482;DHT22;32193;51.446;6.792;2022-08-01T18:16:54;24.40;99.90
46482;DHT22;32193;51.446;6.792;2022-08-01T18:21:49;24.10;99.90
46482;DHT22;32193;51.446;6.792;2022-08-01T18:24:15;23.90;99.90
46482;DHT22;32193;51.446;6.792;2022-08-01T18:26:43;24.30;99.90
46482;DHT22;32193;51.446;6.792;2022-08-01T18:29:09;24.10;99.90
46482;DHT22;32193;51.446;6.792;2022-08-01T18:38:54;23.40;99.90
46482;DHT22;32193;51.446;6.792;2022-08-01T18:41:20;23.20;99.90
46482;DHT22;32193;51.446;6.792;2022-08-01T18:43:46;23.50;99.90
46482;DHT22;32193;51.446;6.792;2022-08-01T18:51:05;23.20;99.90
46482;DHT22;32193;51.446;6.792;2022-08-01T18:53:32;23.00;99.90
46482;DHT22;32193;51.446;6.792;2022-08-01T18:55:57;23.30;99.90
46482;DHT22;32193;51.446;6.792;2022-08-01T18:58:23;23.30;99.90
46482;DHT22;32193;51.446;6.792;2022-08-01T19:00:49;23.10;99.90
46482;DHT22;32193;51.446;6.792;2022-08-01T19:05:42;22.30;99.90
46482;DHT22;32193;51.446;6.792;2022-08-01T19:08:08;22.70;99.90
46482;DHT22;32193;51.446;6.792;2022-08-01T19:10:35;22.00;99.90
46482;DHT22;32193;51.446;6.792;2022-08-01T19:15:27;23.10;99.90
46482;DHT22;32193;51.446;6.792;2022-08-01T19:17:52;22.70;99.90
46482;DHT22;32193;51.446;6.792;2022-08-01T19:20:18;22.80;99.90
46482;DHT22;32193;51.446;6.792;2022-08-01T19:22:44;22.60;99.90
46482;DHT22;32193;51.446;6.792;2022-08-01T19:27:39;22.40;99.90
46482;DHT22;32193;51.446;6.792;2022-08-01T19:30:08;22.70;99.90
46482;DHT22;32193;51.446;6.792;2022-08-01T19:32:35;22.70;99.90
46482;DHT22;32193;51.446;6.792;2022-08-01T19:37:28;22.10;99.90
46482;DHT22;32193;51.446;6.792;2022-08-01T19:39:55;22.00;99.90
46482;DHT22;32193;51.446;6.792;2022-08-01T19:42:23;21.90;99.90
46482;DHT22;32193;51.446;6.792;2022-08-01T19:44:49;21.80;99.90
46482;DHT22;32193;51.446;6.792;2022-08-01T19:47:16;22.00;99.90
46482;DHT22;32193;51.446;6.792;2022-08-01T19:49:41;21.30;99.90
46482;DHT22;32193;51.446;6.792;2022-08-01T19:52:08;21.70;99.90
46482;DHT22;32193;51.446;6.792;2022-08-01T19:54:36;21.70;99.90
46482;DHT22;32193;51.446;6.792;2022-08-01T19:57:04;21.60;99.90
46482;DHT22;32193;51.446;6.792;2022-08-01T19:59:32;21.90;99.90
46482;DHT22;32193;51.446;6.792;2022-08-01T20:04:24;21.60;99.90
46482;DHT22;32193;51.446;6.792;2022-08-01T20:06:51;21.60;99.90
46482;DHT22;32193;51.446;6.792;2022-08-01T20:11:44;21.90;99.90
46482;DHT22;32193;51.446;6.792;2022-08-01T20:14:13;22.00;99.90
46482;DHT22;32193;51.446;6.792;2022-08-01T20:19:07;20.90;99.90
46482;DHT22;32193;51.446;6.792;2022-08-01T20:21:34;20.90;99.90
46482;DHT22;32193;51.446;6.792;2022-08-01T20:24:01;21.70;99.90
46482;DHT22;32193;51.446;6.792;2022-08-01T20:26:28;21.20;99.90
46482;DHT22;32193;51.446;6.792;2022-08-01T20:28:56;20.90;99.90
46482;DHT22;32193;51.446;6.792;2022-08-01T20:31:26;20.80;99.90
46482;DHT22;32193;51.446;6.792;2022-08-01T20:33:52;21.20;99.90
46482;DHT22;32193;51.446;6.792;2022-08-01T20:36:17;20.30;99.90